Time;durP1;ratioP1;P1;durP2;ratioP2;P2;SDS_P1;SDS_P2;PMS_P1;PMS_P2;Temp;Humidity;BMP_temperature;BMP_pressure;BME280_temperature;BME280_humidity;BME280_pressure;Samples;Min_cycle;Max_cycle;Signal;HPM_P1;HPM_P2
2023/09/25 00:01:57;;;;;;;0.10;0.10;;;;;;;15.49;78.06;99991.31;7373020;19;20013;-61
2023/09/25 00:04:25;;;;;;;0.10;0.10;;;;;;;15.49;77.41;99996.59;7366644;19;20562;-61
2023/09/25 00:06:51;;;;;;;0.00;0.00;;;;;;;15.42;78.14;99992.59;7358364;19;20630;-61
2023/09/25 00:09:16;;;;;;;0.10;0.10;;;;;;;15.46;77.77;100004.63;7365628;19;20014;-61
2023/09/25 00:11:42;;;;;;;0.10;0.10;;;;;;;15.46;77.24;100008.13;7360927;19;20672;-61
2023/09/25 00:14:08;;;;;;;0.10;0.10;;;;;;;15.46;78.05;100012.53;7365977;19;20017;-61
2023/09/25 00:16:34;;;;;;;0.03;0.03;;;;;;;15.46;77.43;100012.53;7365501;19;20010;-61
2023/09/25 00:19:00;;;;;;;0.10;0.10;;;;;;;15.28;77.98;99991.53;7361998;19;20093;-61
2023/09/25 00:21:25;;;;;;;0.10;0.10;;;;;;;15.44;77.59;100014.41;7363467;19;20009;-60
2023/09/25 00:23:50;;;;;;;0.10;0.10;;;;;;;15.41;77.71;100012.78;7361401;19;20475;-61
2023/09/25 00:26:16;;;;;;;0.10;0.10;;;;;;;15.32;78.22;100003.59;7362673;19;20003;-61
2023/09/25 00:28:42;;;;;;;0.10;0.10;;;;;;;15.37;78.03;100019.16;7368220;19;20010;-61
2023/09/25 00:31:09;;;;;;;0.10;0.10;;;;;;;15.35;77.87;100021.00;7376787;19;20487;-61
2023/09/25 00:33:34;;;;;;;0.10;0.10;;;;;;;15.40;77.61;100023.38;7374491;19;20010;-60
2023/09/25 00:36:00;;;;;;;0.10;0.10;;;;;;;15.42;77.44;100032.06;7366574;19;20017;-61
2023/09/25 00:38:25;;;;;;;0.10;0.10;;;;;;;15.27;77.60;100018.78;7362433;19;20006;-60
2023/09/25 00:40:51;;;;;;;0.10;0.10;;;;;;;15.40;77.50;100033.91;7362908;19;20015;-61
2023/09/25 00:43:17;;;;;;;0.10;0.10;;;;;;;15.42;77.45;100035.53;7360541;19;20090;-61
2023/09/25 00:45:45;;;;;;;0.10;0.10;;;;;;;15.43;77.79;100033.75;7363373;19;20010;-61
2023/09/25 00:48:24;;;;;;;0.10;0.10;;;;;;;15.30;77.26;100013.34;7354745;19;20486;-61
2023/09/25 00:50:50;;;;;;;0.10;0.10;;;;;;;15.42;77.78;100034.69;7362183;19;20986;-61
2023/09/25 00:53:15;;;;;;;0.10;0.10;;;;;;;15.40;77.41;100029.50;7363577;19;20010;-61
2023/09/25 00:55:41;;;;;;;0.10;0.10;;;;;;;15.42;77.75;100032.91;7365578;19;20002;-61
2023/09/25 00:58:07;;;;;;;0.10;0.10;;;;;;;15.42;77.72;100037.31;7361432;19;20417;-61
2023/09/25 01:00:35;;;;;;;0.10;0.10;;;;;;;15.42;77.88;100045.22;7365861;19;20007;-61
2023/09/25 01:03:01;;;;;;;0.10;0.10;;;;;;;15.41;77.81;100046.13;7362814;19;20014;-61
2023/09/25 01:05:28;;;;;;;0.10;0.10;;;;;;;15.30;77.78;100023.88;7363401;19;20015;-60
2023/09/25 01:07:53;;;;;;;0.10;0.10;;;;;;;15.42;77.74;100053.09;7370409;19;20455;-61
2023/09/25 01:10:19;;;;;;;0.10;0.10;;;;;;;15.42;77.89;100047.84;7363823;19;20037;-61
2023/09/25 01:12:46;;;;;;;0.10;0.10;;;;;;;15.42;77.62;100047.84;7367586;19;20030;-61
2023/09/25 01:15:15;;;;;;;0.10;0.10;;;;;;;15.42;77.48;100061.00;7362843;19;20739;-61
2023/09/25 01:17:41;;;;;;;0.10;0.10;;;;;;;15.35;77.73;100052.56;7360520;19;20466;-60
2023/09/25 01:20:11;;;;;;;0.10;0.10;;;;;;;15.35;77.95;100052.56;7335431;19;20010;-60
2023/09/25 01:22:37;;;;;;;0.00;0.00;;;;;;;15.29;77.32;100045.84;7369120;19;20018;-61
2023/09/25 01:25:03;;;;;;;0.10;0.10;;;;;;;15.44;77.41;100067.03;7361265;19;20011;-61
2023/09/25 01:27:28;;;;;;;0.10;0.10;;;;;;;15.31;77.55;100059.78;7363940;19;20530;-61
2023/09/25 01:29:54;;;;;;;0.10;0.10;;;;;;;15.36;77.81;100072.69;7361923;19;20066;-61
2023/09/25 01:32:19;;;;;;;0.10;0.10;;;;;;;15.44;77.48;100088.06;7360879;19;20013;-61
2023/09/25 01:34:45;;;;;;;0.10;0.10;;;;;;;15.34;77.58;100092.13;7362503;19;20035;-61
2023/09/25 01:37:10;;;;;;;0.10;0.10;;;;;;;15.45;77.46;100102.91;7363542;19;20040;-62
2023/09/25 01:39:36;;;;;;;0.10;0.10;;;;;;;15.45;77.55;100105.56;7358083;19;20558;-61
2023/09/25 01:42:03;;;;;;;0.10;0.10;;;;;;;15.46;77.74;100113.38;7367735;19;20038;-60
2023/09/25 01:44:28;;;;;;;0.10;0.10;;;;;;;15.46;77.59;100115.13;7362594;19;20011;-60
2023/09/25 01:46:54;;;;;;;0.08;0.08;;;;;;;15.46;77.29;100105.50;7367380;19;20463;-61
2023/09/25 01:49:20;;;;;;;0.10;0.10;;;;;;;15.46;77.44;100107.25;7363669;19;20007;-61
2023/09/25 01:51:45;;;;;;;0.10;0.10;;;;;;;15.46;76.89;100101.97;7361309;19;20009;-60
2023/09/25 01:54:11;;;;;;;0.10;0.10;;;;;;;15.48;76.89;100101.00;7358058;19;20035;-61
2023/09/25 01:56:36;;;;;;;0.10;0.10;;;;;;;15.48;77.30;100108.88;7360652;19;20928;-61
2023/09/25 01:59:02;;;;;;;0.10;0.10;;;;;;;15.45;76.74;100097.66;7358357;19;20010;-61
2023/09/25 02:01:27;;;;;;;0.10;0.10;;;;;;;15.50;77.22;100111.41;7365150;19;20365;-60
2023/09/25 02:03:53;;;;;;;0.10;0.10;;;;;;;15.52;76.68;100114.84;7363826;19;20046;-61
2023/09/25 02:06:18;;;;;;;0.10;0.10;;;;;;;15.53;76.83;100119.16;7357475;19;20035;-61
2023/09/25 02:08:44;;;;;;;0.10;0.10;;;;;;;15.49;76.70;100107.09;7360784;19;20745;-61
2023/09/25 02:11:09;;;;;;;0.10;0.10;;;;;;;15.54;77.04;100099.81;7356112;19;20006;-61
2023/09/25 02:13:35;;;;;;;0.10;0.10;;;;;;;15.54;76.91;100111.19;7361703;19;20039;-60
2023/09/25 02:16:00;;;;;;;0.10;0.10;;;;;;;15.41;76.46;100067.16;7361608;19;20078;-61
2023/09/25 02:18:25;;;;;;;0.10;0.10;;;;;;;15.54;76.32;100089.28;7359557;19;20016;-61
2023/09/25 02:20:51;;;;;;;0.10;0.10;;;;;;;15.54;77.13;100089.28;7366620;19;20006;-61
2023/09/25 02:23:17;;;;;;;0.10;0.10;;;;;;;15.53;76.83;100092.84;7364790;19;20035;-61
2023/09/25 02:25:42;;;;;;;0.10;0.10;;;;;;;15.43;76.67;100065.31;7362664;19;20031;-61
2023/09/25 02:28:08;;;;;;;0.10;0.10;;;;;;;15.44;76.74;100077.53;7359883;19;19998;-60
2023/09/25 02:30:33;;;;;;;0.10;0.10;;;;;;;15.53;76.36;100095.50;7367109;19;20471;-61
2023/09/25 02:32:59;;;;;;;0.10;0.10;;;;;;;15.51;76.64;100089.44;7370657;19;20009;-61
2023/09/25 02:35:25;;;;;;;0.10;0.10;;;;;;;15.48;76.28;100110.66;7370764;19;20028;-60
2023/09/25 02:37:50;;;;;;;0.10;0.10;;;;;;;15.52;76.59;100102.53;7370551;19;20104;-61
2023/09/25 02:40:16;;;;;;;0.10;0.10;;;;;;;15.47;76.90;100114.22;7374472;19;20002;-61
2023/09/25 02:42:42;;;;;;;0.10;0.10;;;;;;;15.50;77.35;100119.31;7370575;19;20086;-61
2023/09/25 02:45:08;;;;;;;0.10;0.10;;;;;;;15.48;77.11;100126.44;7371724;19;20011;-61
2023/09/25 02:47:33;;;;;;;0.00;0.00;;;;;;;15.39;76.59;100111.13;7368567;19;20006;-61
2023/09/25 02:50:00;;;;;;;0.10;0.10;;;;;;;15.42;76.83;100116.25;7370641;19;20026;-61
2023/09/25 02:52:25;;;;;;;0.10;0.10;;;;;;;15.45;77.20;100135.34;7373246;19;20672;-61
2023/09/25 02:54:51;;;;;;;0.10;0.10;;;;;;;15.32;77.30;100111.47;7368748;19;20040;-61
2023/09/25 02:57:16;;;;;;;0.10;0.10;;;;;;;15.44;77.01;100141.53;7367014;19;20086;-62
2023/09/25 02:59:42;;;;;;;0.10;0.10;;;;;;;15.44;76.99;100145.97;7360393;19;20018;-61
2023/09/25 03:02:07;;;;;;;0.05;0.05;;;;;;;15.35;77.34;100128.00;7367969;19;20478;-61
2023/09/25 03:04:33;;;;;;;0.10;0.10;;;;;;;15.37;77.17;100131.44;7368097;19;20006;-61
2023/09/25 03:06:58;;;;;;;0.10;0.10;;;;;;;15.30;77.16;100117.72;7370385;19;20010;-60
2023/09/25 03:09:24;;;;;;;0.15;0.15;;;;;;;15.28;77.48;100123.06;7370031;19;20007;-61
2023/09/25 03:11:50;;;;;;;0.10;0.10;;;;;;;15.37;76.92;100132.28;7371033;19;20090;-61
2023/09/25 03:14:15;;;;;;;0.10;0.10;;;;;;;15.38;77.01;100135.75;7364792;19;20699;-60
2023/09/25 03:16:41;;;;;;;0.20;0.20;;;;;;;15.27;76.57;100129.25;7369652;19;19995;-61
2023/09/25 03:19:07;;;;;;;0.10;0.10;;;;;;;15.37;76.67;100134.91;7338055;19;20392;-61
2023/09/25 03:21:32;;;;;;;0.10;0.10;;;;;;;15.36;76.85;100137.59;7365456;19;20475;-60
2023/09/25 03:23:58;;;;;;;0.10;0.10;;;;;;;15.35;76.98;100141.16;7349039;19;20937;-62
2023/09/25 03:26:24;;;;;;;0.10;0.10;;;;;;;15.33;76.66;100130.72;7366423;19;20017;-61
2023/09/25 03:28:49;;;;;;;0.08;0.08;;;;;;;15.34;77.18;100139.47;7371271;19;20014;-61
2023/09/25 03:31:15;;;;;;;0.10;0.10;;;;;;;15.33;77.35;100143.88;7366150;19;20009;-61
2023/09/25 03:33:41;;;;;;;0.10;0.10;;;;;;;15.30;77.47;100139.59;7363319;19;20006;-61
2023/09/25 03:36:07;;;;;;;0.10;0.10;;;;;;;15.32;77.30;100148.28;7364972;19;20002;-60
2023/09/25 03:38:32;;;;;;;0.17;0.17;;;;;;;15.30;77.16;100151.91;7366021;19;20044;-61
2023/09/25 03:40:58;;;;;;;0.10;0.10;;;;;;;15.32;77.13;100152.72;7365190;19;20018;-61
2023/09/25 03:43:23;;;;;;;0.03;0.03;;;;;;;15.30;77.62;100147.50;7368334;19;20446;-60
2023/09/25 03:45:49;;;;;;;0.10;0.10;;;;;;;15.30;77.51;100155.41;7363064;19;20006;-61
2023/09/25 03:48:15;;;;;;;0.10;0.10;;;;;;;15.29;77.81;100164.22;7366708;19;20021;-61
2023/09/25 03:50:40;;;;;;;0.10;0.10;;;;;;;15.30;77.63;100159.81;7355044;19;20022;-62
2023/09/25 03:53:06;;;;;;;0.10;0.10;;;;;;;15.30;77.05;100162.44;7366571;19;19998;-61
2023/09/25 03:55:31;;;;;;;0.10;0.10;;;;;;;15.29;77.55;100158.13;7364177;19;20002;-61
2023/09/25 03:57:56;;;;;;;0.10;0.10;;;;;;;15.30;76.75;100155.41;7375190;19;20042;-61
2023/09/25 04:00:23;;;;;;;0.10;0.10;;;;;;;15.31;76.76;100162.38;7365731;19;20003;-60
2023/09/25 04:02:48;;;;;;;0.10;0.10;;;;;;;15.31;77.26;100154.50;7370889;19;20680;-60
2023/09/25 04:05:14;;;;;;;0.10;0.10;;;;;;;15.31;76.90;100162.38;7366606;19;20003;-61
2023/09/25 04:07:39;;;;;;;0.10;0.10;;;;;;;15.37;76.72;100168.25;7369965;19;20014;-61
2023/09/25 04:10:07;;;;;;;0.10;0.10;;;;;;;15.36;76.82;100169.16;7362355;19;20035;-60
2023/09/25 04:12:34;;;;;;;0.10;0.10;;;;;;;15.36;76.69;100174.44;7363016;19;20624;-61
2023/09/25 04:15:00;;;;;;;0.10;0.10;;;;;;;15.36;77.10;100183.19;7355427;19;20070;-61
2023/09/25 04:17:25;;;;;;;0.10;0.10;;;;;;;15.38;77.06;100188.38;7363896;19;20029;-61
2023/09/25 04:19:51;;;;;;;0.10;0.10;;;;;;;15.30;77.15;100175.59;7365568;19;20005;-61
2023/09/25 04:22:16;;;;;;;0.10;0.10;;;;;;;15.36;76.80;100191.09;7366469;19;20018;-61
2023/09/25 04:24:42;;;;;;;0.10;0.10;;;;;;;15.31;76.87;100186.06;7357952;19;20477;-61
2023/09/25 04:27:09;;;;;;;0.10;0.10;;;;;;;15.21;77.02;100168.19;7334510;19;20347;-61
2023/09/25 04:29:35;;;;;;;0.10;0.10;;;;;;;15.36;77.11;100201.63;7363556;19;20021;-61
2023/09/25 04:32:03;;;;;;;0.10;0.10;;;;;;;15.42;76.53;100195.19;7365704;19;20006;-61
2023/09/25 04:34:29;;;;;;;0.10;0.10;;;;;;;15.40;77.04;100187.34;7363514;19;20013;-61
2023/09/25 04:36:54;;;;;;;0.10;0.10;;;;;;;15.30;76.67;100181.69;7365203;19;20015;-61
2023/09/25 04:39:20;;;;;;;0.10;0.10;;;;;;;15.24;76.78;100171.50;7365925;19;19990;-61
2023/09/25 04:41:46;;;;;;;0.10;0.10;;;;;;;15.44;76.25;100195.94;7362650;19;20030;-62
2023/09/25 04:44:12;;;;;;;0.10;0.10;;;;;;;15.44;76.80;100188.06;7363245;19;20006;-61
2023/09/25 04:46:37;;;;;;;0.10;0.10;;;;;;;15.44;75.96;100193.31;7362571;19;20011;-61
2023/09/25 04:49:06;;;;;;;0.10;0.10;;;;;;;15.45;76.87;100205.53;7366665;19;20029;-61
2023/09/25 04:51:32;;;;;;;0.10;0.10;;;;;;;15.46;76.59;100197.59;7359531;19;20078;-61
2023/09/25 04:53:59;;;;;;;0.00;0.00;;;;;;;15.45;76.76;100206.38;7358931;19;20015;-61
2023/09/25 04:56:27;;;;;;;0.10;0.10;;;;;;;15.45;76.81;100210.81;7364640;19;20586;-61
2023/09/25 04:58:52;;;;;;;0.10;0.10;;;;;;;15.46;76.59;100209.88;7364718;19;20383;-61
2023/09/25 05:01:18;;;;;;;0.10;0.10;;;;;;;15.39;76.53;100208.50;7363435;19;20007;-61
2023/09/25 05:03:43;;;;;;;0.10;0.10;;;;;;;15.31;76.55;100196.59;7364683;19;20007;-61
2023/09/25 05:06:11;;;;;;;0.10;0.10;;;;;;;15.49;76.03;100222.88;7363172;19;20391;-60
2023/09/25 05:08:36;;;;;;;;;;;;;;;15.54;76.32;100223.50;7365874;19;20133;-61
2023/09/25 05:11:01;;;;;;;0.10;0.10;;;;;;;15.50;75.99;100222.78;7363173;19;20431;-62
2023/09/25 05:13:27;;;;;;;0.10;0.10;;;;;;;15.50;76.07;100228.06;7358408;19;20041;-61
2023/09/25 05:15:52;;;;;;;0.10;0.10;;;;;;;15.39;75.87;100211.13;7363603;19;20475;-61
2023/09/25 05:18:18;;;;;;;0.10;0.10;;;;;;;15.52;75.96;100246.44;7363697;19;20021;-60
2023/09/25 05:20:43;;;;;;;0.05;0.05;;;;;;;15.48;76.29;100231.72;7367584;19;20006;-61
2023/09/25 05:23:08;;;;;;;0.10;0.10;;;;;;;15.52;76.05;100239.38;7364988;19;20511;-62
2023/09/25 05:25:34;;;;;;;0.10;0.10;;;;;;;15.52;76.45;100251.69;7358002;19;20017;-61
2023/09/25 05:27:59;;;;;;;0.10;0.10;;;;;;;15.53;76.64;100245.50;7363892;19;20859;-61
2023/09/25 05:30:25;;;;;;;0.10;0.10;;;;;;;15.54;75.82;100249.81;7360869;19;20006;-61
2023/09/25 05:32:51;;;;;;;0.10;0.10;;;;;;;15.57;76.01;100252.31;7363954;19;20473;-61
2023/09/25 05:35:18;;;;;;;0.10;0.10;;;;;;;15.52;76.34;100249.06;7365328;19;20027;-61
2023/09/25 05:37:45;;;;;;;0.10;0.10;;;;;;;15.59;75.97;100266.22;7369634;19;20352;-61
2023/09/25 05:40:11;;;;;;;0.10;0.10;;;;;;;15.61;75.81;100264.34;7365085;19;20027;-61
2023/09/25 05:42:39;;;;;;;0.10;0.10;;;;;;;15.53;76.14;100246.34;7363444;19;20015;-61
2023/09/25 05:45:05;;;;;;;0.10;0.10;;;;;;;15.64;76.00;100248.44;7362811;19;20011;-61
2023/09/25 05:47:31;;;;;;;0.10;0.10;;;;;;;15.64;75.93;100253.72;7357735;19;20011;-61
2023/09/25 05:49:57;;;;;;;0.10;0.10;;;;;;;15.65;75.69;100265.94;7358448;19;20018;-61
2023/09/25 05:52:22;;;;;;;0.10;0.10;;;;;;;15.59;75.20;100247.81;7359807;19;20006;-60
2023/09/25 05:54:49;;;;;;;0.10;0.10;;;;;;;15.67;75.33;100266.72;7359016;19;20117;-61
2023/09/25 05:57:14;;;;;;;0.10;0.10;;;;;;;15.68;75.62;100271.06;7357923;19;20393;-60
2023/09/25 05:59:40;;;;;;;0.10;0.10;;;;;;;15.56;75.37;100266.38;7355439;19;19999;-61
2023/09/25 06:02:07;;;;;;;0.10;0.10;;;;;;;15.67;75.63;100281.69;7364892;19;20722;-61
2023/09/25 06:04:35;;;;;;;0.10;0.10;;;;;;;15.63;75.64;100275.72;7362144;19;20002;-61
2023/09/25 06:07:00;;;;;;;0.10;0.10;;;;;;;15.68;75.25;100288.63;7365307;19;20021;-61
2023/09/25 06:09:26;;;;;;;0.10;0.10;;;;;;;15.57;75.12;100278.63;7370271;19;20006;-60
2023/09/25 06:11:51;;;;;;;0.20;0.20;;;;;;;15.67;75.34;100306.22;7367118;19;20042;-61
2023/09/25 06:14:16;;;;;;;0.10;0.10;;;;;;;15.66;75.08;100304.53;7365721;19;20048;-61
2023/09/25 06:16:43;;;;;;;0.10;0.10;;;;;;;15.65;75.18;100302.78;7369412;19;20010;-61
2023/09/25 06:19:08;;;;;;;0.10;0.10;;;;;;;15.54;75.15;100297.19;7375501;19;20014;-60
2023/09/25 06:21:34;;;;;;;0.10;0.10;;;;;;;15.66;75.44;100309.78;7367025;19;20059;-61
2023/09/25 06:23:59;;;;;;;0.10;0.10;;;;;;;15.64;75.37;100319.53;7370073;19;20006;-61
2023/09/25 06:26:28;;;;;;;0.10;0.10;;;;;;;15.51;75.47;100299.97;7367516;19;20011;-61
2023/09/25 06:28:56;;;;;;;0.10;0.10;;;;;;;15.64;75.34;100332.69;7370441;19;20834;-61
2023/09/25 06:31:23;;;;;;;0.10;0.10;;;;;;;15.63;75.38;100341.50;7364415;19;20087;-61
2023/09/25 06:33:48;;;;;;;0.10;0.10;;;;;;;15.62;75.28;100350.31;7371335;19;20022;-61
2023/09/25 06:36:14;;;;;;;0.10;0.10;;;;;;;15.60;75.25;100367.94;7365134;19;20011;-60
2023/09/25 06:38:39;;;;;;;0.10;0.10;;;;;;;15.61;74.96;100353.84;7365693;19;20365;-61
2023/09/25 06:41:05;;;;;;;0.10;0.10;;;;;;;15.60;74.74;100359.19;7368284;19;20034;-60
2023/09/25 06:43:30;;;;;;;0.10;0.10;;;;;;;15.61;75.44;100360.88;7367862;19;20006;-61
2023/09/25 06:45:56;;;;;;;0.10;0.10;;;;;;;15.61;75.56;100380.16;7362780;19;20018;-62
2023/09/25 06:48:21;;;;;;;0.10;0.10;;;;;;;15.42;75.39;100353.91;7367927;19;20109;-61
2023/09/25 06:50:47;;;;;;;0.10;0.10;;;;;;;15.61;75.63;100382.78;7364905;19;20011;-61
2023/09/25 06:53:12;;;;;;;0.10;0.10;;;;;;;15.63;75.69;100377.47;7368337;19;20508;-61
2023/09/25 06:55:39;;;;;;;0.10;0.10;;;;;;;15.60;75.70;100396.88;7363258;19;20002;-61
2023/09/25 06:58:04;;;;;;;0.10;0.10;;;;;;;15.62;75.64;100387.16;7367479;19;20014;-60
2023/09/25 07:00:30;;;;;;;0.10;0.10;;;;;;;15.62;75.41;100395.06;7365494;19;20002;-61
2023/09/25 07:02:56;;;;;;;0.10;0.10;;;;;;;15.62;75.37;100397.69;7376617;19;20014;-60
2023/09/25 07:05:21;;;;;;;0.10;0.10;;;;;;;15.43;75.51;100358.25;7373644;19;20006;-61
2023/09/25 07:07:47;;;;;;;0.10;0.10;;;;;;;15.65;75.45;100405.44;7368897;19;20014;-61
2023/09/25 07:10:13;;;;;;;0.10;0.10;;;;;;;15.68;75.42;100412.38;7366266;19;20029;-61
2023/09/25 07:12:39;;;;;;;0.10;0.10;;;;;;;15.68;75.24;100410.59;7360000;19;20029;-61
2023/09/25 07:15:05;;;;;;;0.10;0.10;;;;;;;15.68;75.87;100415.84;7365863;19;20010;-61
2023/09/25 07:17:30;;;;;;;0.10;0.10;;;;;;;15.57;75.92;100399.69;7364694;19;20578;-61
2023/09/25 07:19:56;;;;;;;0.10;0.10;;;;;;;15.67;75.67;100416.78;7366217;19;20399;-61
2023/09/25 07:22:23;;;;;;;0.10;0.10;;;;;;;15.76;75.36;100433.88;7366977;19;20010;-61
2023/09/25 07:24:49;;;;;;;0.10;0.10;;;;;;;15.77;75.46;100428.56;7363577;19;20018;-61
2023/09/25 07:27:15;;;;;;;0.10;0.10;;;;;;;15.80;74.95;100423.13;7368417;19;20014;-61
2023/09/25 07:29:48;;;;;;;0.10;0.10;;;;;;;15.85;74.98;100443.13;7365084;19;20014;-61
2023/09/25 07:32:14;;;;;;;0.10;0.10;;;;;;;15.77;75.21;100430.34;7369014;19;20023;-60
2023/09/25 07:34:41;;;;;;;0.10;0.10;;;;;;;15.87;75.12;100449.19;7370322;19;20014;-60
2023/09/25 07:37:07;;;;;;;0.10;0.10;;;;;;;15.89;75.24;100444.69;7366237;19;20021;-61
2023/09/25 07:39:34;;;;;;;0.10;0.10;;;;;;;15.77;75.50;100428.56;7369222;19;20010;-60
2023/09/25 07:42:00;;;;;;;0.10;0.10;;;;;;;15.86;75.27;100439.56;7367113;19;20019;-61
2023/09/25 07:44:26;;;;;;;0.10;0.10;;;;;;;15.96;75.15;100448.72;7364424;19;20010;-61
2023/09/25 07:46:57;;;;;;;0.10;0.10;;;;;;;16.02;75.08;100461.63;7367350;19;20011;-61
2023/09/25 07:49:23;;;;;;;0.10;0.10;;;;;;;16.05;75.04;100461.44;7370831;19;20982;-61
2023/09/25 07:51:48;;;;;;;0.10;0.10;;;;;;;16.01;75.41;100444.06;7369077;19;20116;-61
2023/09/25 07:54:15;;;;;;;0.10;0.10;;;;;;;16.18;74.78;100465.19;7369131;19;20462;-61
2023/09/25 07:56:40;;;;;;;0.13;0.13;;;;;;;16.10;74.72;100448.91;7368658;19;20018;-60
2023/09/25 07:59:06;;;;;;;0.10;0.10;;;;;;;16.29;74.80;100473.41;7367193;19;20016;-61
2023/09/25 08:01:31;;;;;;;0.10;0.10;;;;;;;16.38;74.36;100471.25;7365772;19;20039;-61
2023/09/25 08:03:57;;;;;;;0.10;0.10;;;;;;;16.45;74.22;100472.63;7365772;19;20764;-61
2023/09/25 08:06:24;;;;;;;0.10;0.10;;;;;;;16.52;74.25;100476.66;7364647;19;20017;-61
2023/09/25 08:08:57;;;;;;;0.10;0.10;;;;;;;16.60;75.11;100485.88;7367360;19;20007;-61
2023/09/25 08:11:24;;;;;;;0.10;0.10;;;;;;;16.65;74.29;100475.09;7366617;19;20021;-61
2023/09/25 08:13:50;;;;;;;0.10;0.10;;;;;;;16.79;73.67;100492.88;7365853;19;20016;-61
2023/09/25 08:16:18;;;;;;;0.10;0.10;;;;;;;16.92;74.57;100508.91;7363189;19;20541;-61
2023/09/25 08:18:44;;;;;;;0.10;0.10;;;;;;;16.98;73.74;100509.47;7366644;19;20577;-61
2023/09/25 08:21:10;;;;;;;0.10;0.10;;;;;;;16.98;73.16;100500.66;7363646;19;20006;-61
2023/09/25 08:23:35;;;;;;;0.00;0.00;;;;;;;17.12;72.72;100506.94;7367285;19;20026;-60
2023/09/25 08:26:00;;;;;;;0.10;0.10;;;;;;;17.23;73.36;100524.81;7355965;19;20604;-61
2023/09/25 08:28:26;;;;;;;0.10;0.10;;;;;;;17.37;72.84;100530.22;7362473;19;20010;-61
2023/09/25 08:30:51;;;;;;;0.10;0.10;;;;;;;17.47;73.29;100541.16;7361910;19;20011;-61
2023/09/25 08:33:17;;;;;;;0.10;0.10;;;;;;;17.63;72.80;100538.53;7365198;19;20018;-61
2023/09/25 08:35:43;;;;;;;0.10;0.10;;;;;;;17.71;72.83;100536.34;7364325;19;20010;-61
2023/09/25 08:38:09;;;;;;;0.10;0.10;;;;;;;17.81;72.63;100524.34;7369752;19;20007;-61
2023/09/25 08:40:37;;;;;;;0.10;0.10;;;;;;;18.03;73.26;100541.66;7364062;19;20648;-61
2023/09/25 08:43:05;;;;;;;0.05;0.05;;;;;;;18.12;71.80;100536.69;7369252;19;20113;-61
2023/09/25 08:45:30;;;;;;;0.10;0.10;;;;;;;18.22;71.28;100547.59;7365623;19;20018;-61
2023/09/25 08:47:55;;;;;;;0.10;0.10;;;;;;;18.36;71.36;100545.03;7368002;19;20014;-61
2023/09/25 08:50:21;;;;;;;0.10;0.10;;;;;;;18.46;70.88;100563.00;7367705;19;20632;-61
2023/09/25 08:52:46;;;;;;;0.10;0.10;;;;;;;18.52;71.95;100565.28;7365437;19;20023;-62
2023/09/25 08:55:12;;;;;;;0.10;0.10;;;;;;;18.63;72.91;100584.03;7361253;19;19999;-61
2023/09/25 08:57:38;;;;;;;0.10;0.10;;;;;;;18.62;70.20;100556.72;7367090;19;20420;-61
2023/09/25 09:00:11;;;;;;;0.05;0.05;;;;;;;18.82;70.03;100584.69;7368373;19;20010;-62
2023/09/25 09:02:43;;;;;;;0.20;0.20;;;;;;;18.95;69.80;100578.66;7363400;19;20333;-61
2023/09/25 09:05:13;;;;;;;0.10;0.10;;;;;;;19.10;69.92;100581.25;7361667;19;20031;-61
2023/09/25 09:07:59;;;;;;;0.10;0.10;;;;;;;19.30;71.18;100593.28;7361173;19;21963;-61
2023/09/25 09:10:32;;;;;;;0.10;0.10;;;;;;;19.39;71.20;100584.78;7362254;19;20010;-61
2023/09/25 09:12:58;;;;;;;0.20;0.20;;;;;;;19.57;69.50;100592.56;7357772;19;20018;-61
2023/09/25 09:15:28;;;;;;;0.10;0.10;;;;;;;19.77;68.92;100594.84;7363361;19;20016;-62
2023/09/25 09:17:57;;;;;;;0.10;0.10;;;;;;;20.00;69.72;100592.53;7363219;19;20017;-61
2023/09/25 09:20:34;;;;;;;0.10;0.10;;;;;;;20.16;69.49;100590.59;7361681;19;20021;-62
2023/09/25 09:23:00;;;;;;;0.10;0.10;;;;;;;20.33;67.69;100589.53;7366440;19;20016;-61
2023/09/25 09:25:25;;;;;;;0.20;0.20;;;;;;;20.51;66.39;100587.50;7326636;19;20007;-61
2023/09/25 09:27:51;;;;;;;0.10;0.10;;;;;;;20.63;67.27;100584.00;7365810;19;20015;-61
2023/09/25 09:30:21;;;;;;;0.10;0.10;;;;;;;20.85;66.18;100589.59;7368333;19;20003;-61
2023/09/25 09:32:50;;;;;;;0.10;0.10;;;;;;;20.94;65.35;100589.00;7362161;19;20018;-61
2023/09/25 09:35:25;;;;;;;0.10;0.10;;;;;;;21.12;65.05;100588.69;7359455;19;21116;-61
2023/09/25 09:37:52;;;;;;;0.10;0.10;;;;;;;21.24;62.87;100585.19;7367039;19;20043;-61
2023/09/25 09:40:19;;;;;;;0.10;0.10;;;;;;;21.41;64.26;100587.56;7370729;19;20010;-62
2023/09/25 09:42:47;;;;;;;0.10;0.10;;;;;;;21.56;64.06;100595.41;7371438;19;20066;-61
2023/09/25 09:45:13;;;;;;;0.10;0.10;;;;;;;21.69;60.66;100599.72;7372751;19;20503;-62
2023/09/25 09:47:43;;;;;;;0.10;0.10;;;;;;;21.89;65.38;100602.78;7337125;19;20007;-61
2023/09/25 09:50:10;;;;;;;0.10;0.10;;;;;;;21.93;60.30;100613.09;7371143;19;20089;-61
2023/09/25 09:52:38;;;;;;;0.10;0.10;;;;;;;22.07;59.57;100608.63;7372469;19;20021;-61
2023/09/25 09:55:06;;;;;;;0.10;0.10;;;;;;;22.18;56.87;100608.72;7370336;19;20031;-62
2023/09/25 09:57:31;;;;;;;0.10;0.10;;;;;;;22.30;61.22;100625.56;7372845;19;20014;-62
2023/09/25 09:59:57;;;;;;;0.15;0.15;;;;;;;22.30;58.79;100596.31;7370013;19;20787;-61
2023/09/25 10:02:23;;;;;;;0.10;0.10;;;;;;;22.44;57.20;100618.28;7370968;19;20006;-62
2023/09/25 10:04:50;;;;;;;0.10;0.10;;;;;;;22.57;57.59;100625.38;7370162;19;20050;-61
2023/09/25 10:07:15;;;;;;;0.10;0.10;;;;;;;22.62;56.79;100608.09;7372133;19;21216;-61
2023/09/25 10:10:05;;;;;;;0.10;0.10;;;;;;;22.91;61.24;100613.94;7368799;19;20010;-61
2023/09/25 10:12:43;;;;;;;0.10;0.10;;;;;;;23.05;56.59;100618.19;7367709;19;20014;-61
2023/09/25 10:15:09;;;;;;;0.10;0.10;;;;;;;23.11;53.47;100624.88;7371436;19;20014;-62
2023/09/25 10:17:42;;;;;;;0.10;0.10;;;;;;;23.22;56.20;100633.75;7367655;19;20097;-61
2023/09/25 10:20:38;;;;;;;0.10;0.10;;;;;;;23.34;57.33;100658.59;7371247;19;20015;-61
2023/09/25 10:23:08;;;;;;;0.10;0.10;;;;;;;23.33;54.20;100640.94;7369135;19;20092;-61
2023/09/25 10:25:47;;;;;;;0.10;0.10;;;;;;;23.37;58.02;100637.06;7366676;19;20106;-62
2023/09/25 10:28:27;;;;;;;0.10;0.10;;;;;;;23.39;54.89;100640.44;7369687;19;20451;-61
2023/09/25 10:31:01;;;;;;;0.13;0.13;;;;;;;23.42;55.96;100642.00;7369925;19;20029;-61
2023/09/25 10:33:59;;;;;;;0.10;0.10;;;;;;;23.53;58.94;100652.72;7371042;19;20010;-61
2023/09/25 10:36:40;;;;;;;0.10;0.10;;;;;;;23.53;57.13;100664.22;7369875;19;20018;-61
2023/09/25 10:39:13;;;;;;;0.10;0.10;;;;;;;23.62;56.91;100672.47;7368849;19;20035;-61
2023/09/25 10:41:38;;;;;;;0.10;0.10;;;;;;;23.64;52.08;100657.25;7377783;19;20014;-61
2023/09/25 10:44:04;;;;;;;0.10;0.10;;;;;;;23.75;53.39;100665.25;7364919;19;20032;-61
2023/09/25 10:46:30;;;;;;;0.10;0.10;;;;;;;23.88;52.08;100662.47;7368576;19;20455;-61
2023/09/25 10:48:56;;;;;;;0.10;0.10;;;;;;;24.07;49.69;100674.19;7370041;19;20024;-61
2023/09/25 10:51:22;;;;;;;0.10;0.10;;;;;;;24.23;50.98;100683.66;7365629;19;20328;-61
2023/09/25 10:53:48;;;;;;;0.10;0.10;;;;;;;24.37;49.00;100674.56;7364738;19;20035;-61
2023/09/25 10:56:14;;;;;;;0.10;0.10;;;;;;;24.48;48.83;100678.09;7370681;19;20355;-61
2023/09/25 10:58:40;;;;;;;0.10;0.10;;;;;;;24.48;48.11;100654.06;7370593;19;20022;-61
2023/09/25 11:01:05;;;;;;;0.10;0.10;;;;;;;24.68;51.80;100667.56;7371223;19;20007;-61
2023/09/25 11:03:34;;;;;;;0.10;0.10;;;;;;;24.77;49.60;100674.81;7369389;19;20024;-61
2023/09/25 11:05:59;;;;;;;0.10;0.10;;;;;;;24.91;48.29;100653.16;7366735;19;20035;-61
2023/09/25 11:08:25;;;;;;;0.10;0.10;;;;;;;25.07;50.81;100658.09;7366284;19;20516;-61
2023/09/25 11:10:51;;;;;;;0.10;0.10;;;;;;;25.09;47.31;100654.34;7360894;19;20876;-61
2023/09/25 11:13:17;;;;;;;0.10;0.10;;;;;;;25.07;48.41;100642.91;7366538;19;20025;-61
2023/09/25 11:15:44;;;;;;;0.10;0.10;;;;;;;25.15;48.20;100670.84;7363840;19;20740;-61
2023/09/25 11:18:10;;;;;;;0.10;0.10;;;;;;;25.10;48.37;100680.06;7366575;19;20483;-61
2023/09/25 11:20:37;;;;;;;0.10;0.10;;;;;;;25.00;46.87;100670.25;7362964;19;20025;-61
2023/09/25 11:23:08;;;;;;;0.20;0.20;;;;;;;24.95;46.94;100681.31;7361978;19;20453;-61
2023/09/25 11:25:43;;;;;;;0.10;0.10;;;;;;;25.00;50.40;100684.47;7361974;19;20010;-62